New Woodstock, NY (13122)

1:44 AM EDT on September 25, 2016 (GMT -0400)
Fabius | | Change Station
Active Advisory: Frost Advisory

Elev 1253 ft 42.86 °N, 75.92 °W | Updated 2 minutes ago

Scattered Clouds
Scattered Clouds
40.8 °F
Feels Like 41 °F
N
0.0
Wind Variable Wind from SSW

Today
High -- | Low -- °F
--% Chance of Precip.
Yesterday
High -- | Low -- °F
Precip. -- in
Pressure 30.21 in
Visibility 10.0 miles
Clouds Scattered Clouds 6000 ft
Windchill 41 °F
Dew Point 39 °F
Humidity 94%
Rainfall 0.00 in
Snow Depth Not available.
6:54 AM 6:54 PM
Waning Crescent, 31% visible
METAR KSYR 250454Z 32004KT 10SM SCT060 09/06 A3021 RMK AO2 SLP228 T00940061 401780067
Pressure 30.21 in
Visibility 10.0 miles
Clouds Scattered Clouds 6000 ft
Windchill 41 °F
Dew Point 39 °F
Humidity 94%
Rainfall 0.00 in
Snow Depth Not available.
6:54 AM 6:54 PM
Waning Crescent, 31% visible
METAR KSYR 250454Z 32004KT 10SM SCT060 09/06 A3021 RMK AO2 SLP228 T00940061 401780067

10-Day Weather Forecast

Almanac

Astronomy

Sep. 25, 2016 Rise Set
Actual Time
Civil Twilight
Nautical Twilight
Astronomical Twilight
Moon
Length of Visible Light
Length of Day
Tomorrow will be .
, % of the Moon is Illuminated

Today's Extremes

State Highs State Lows

Community

WunderPhotos

Upload Photos

1,941,554 photos uploaded!

WunderBlog® & News

Nearby

Air Quality

  Air Quality AQ Index Pollutant
Not available.

Snow Depth

Station Depth Elevation

Earthquake Activity

City Distance Mag. Time & Date
Minimum magnitude displayed is 2.5.

Coastal Water Temperatures

Place Temperature

Stations

Nearby Weather Stations

Station Location Temp. Windchill Dew Point Humidity Wind Precip. Elev Updated Type
                   

Watches & Warnings

Frost Advisory
Issued: 8:30 PM EDT Sep. 24, 2016 – National Weather Service

... Frost advisory remains in effect from 2 am to 8 am EDT
Sunday...

* locations... Oneida, Madison, Chenango, Otsego, Delaware, and
Sullivan counties of central New York.

* Hazards... widespread frost.

* Temperatures... falling into the middle and upper 30s late
tonight and early Sunday morning.

* Impacts... potential frost damage to sensitive plants and crops.

Precautionary/preparedness actions...

A frost advisory means that areas of frost are expected.
Sensitive outdoor plants may be killed if left uncovered.